sensor_id;sensor_type;location;lat;lon;timestamp;P1;durP1;ratioP1;P2;durP2;ratioP2
21677;SDS011;11000;50.360;7.582;2024-03-08T00:00:18;22.23;;;15.50;;
21677;SDS011;11000;50.360;7.582;2024-03-08T00:02:39;24.63;;;16.07;;
21677;SDS011;11000;50.360;7.582;2024-03-08T00:05:00;22.77;;;14.53;;
21677;SDS011;11000;50.360;7.582;2024-03-08T00:07:20;22.17;;;14.77;;
21677;SDS011;11000;50.360;7.582;2024-03-08T00:09:41;22.27;;;16.10;;
21677;SDS011;11000;50.360;7.582;2024-03-08T00:12:01;19.40;;;14.63;;
21677;SDS011;11000;50.360;7.582;2024-03-08T00:14:22;22.17;;;15.63;;
21677;SDS011;11000;50.360;7.582;2024-03-08T00:16:42;20.97;;;14.00;;
21677;SDS011;11000;50.360;7.582;2024-03-08T00:19:03;22.73;;;15.13;;
21677;SDS011;11000;50.360;7.582;2024-03-08T00:21:24;20.03;;;13.47;;
21677;SDS011;11000;50.360;7.582;2024-03-08T00:23:44;24.93;;;14.90;;
21677;SDS011;11000;50.360;7.582;2024-03-08T00:26:05;23.17;;;15.20;;
21677;SDS011;11000;50.360;7.582;2024-03-08T00:28:26;22.50;;;13.70;;
21677;SDS011;11000;50.360;7.582;2024-03-08T00:30:47;23.87;;;14.93;;
21677;SDS011;11000;50.360;7.582;2024-03-08T00:33:07;23.67;;;13.63;;
21677;SDS011;11000;50.360;7.582;2024-03-08T00:35:28;20.67;;;14.20;;
21677;SDS011;11000;50.360;7.582;2024-03-08T00:37:49;24.53;;;14.77;;
21677;SDS011;11000;50.360;7.582;2024-03-08T00:40:09;20.77;;;13.83;;
21677;SDS011;11000;50.360;7.582;2024-03-08T00:42:30;20.10;;;14.03;;
21677;SDS011;11000;50.360;7.582;2024-03-08T00:44:51;23.27;;;14.47;;
21677;SDS011;11000;50.360;7.582;2024-03-08T00:47:11;23.43;;;14.70;;
21677;SDS011;11000;50.360;7.582;2024-03-08T00:49:32;20.47;;;14.67;;
21677;SDS011;11000;50.360;7.582;2024-03-08T00:51:53;23.30;;;14.90;;
21677;SDS011;11000;50.360;7.582;2024-03-08T00:54:13;24.83;;;15.20;;
21677;SDS011;11000;50.360;7.582;2024-03-08T00:56:35;20.20;;;14.17;;
21677;SDS011;11000;50.360;7.582;2024-03-08T00:58:56;21.77;;;15.10;;
21677;SDS011;11000;50.360;7.582;2024-03-08T01:01:18;23.47;;;15.00;;
21677;SDS011;11000;50.360;7.582;2024-03-08T01:03:39;20.07;;;14.07;;
21677;SDS011;11000;50.360;7.582;2024-03-08T01:06:00;22.90;;;14.57;;
21677;SDS011;11000;50.360;7.582;2024-03-08T01:08:24;20.67;;;14.03;;
21677;SDS011;11000;50.360;7.582;2024-03-08T01:10:44;22.83;;;15.47;;
21677;SDS011;11000;50.360;7.582;2024-03-08T01:13:05;22.57;;;15.10;;
21677;SDS011;11000;50.360;7.582;2024-03-08T01:15:25;24.33;;;14.40;;
21677;SDS011;11000;50.360;7.582;2024-03-08T01:17:46;21.77;;;14.53;;
21677;SDS011;11000;50.360;7.582;2024-03-08T01:20:07;22.83;;;14.47;;
21677;SDS011;11000;50.360;7.582;2024-03-08T01:22:30;22.73;;;14.37;;
21677;SDS011;11000;50.360;7.582;2024-03-08T01:24:51;20.67;;;13.93;;
21677;SDS011;11000;50.360;7.582;2024-03-08T01:27:11;22.97;;;15.30;;
21677;SDS011;11000;50.360;7.582;2024-03-08T01:29:32;24.87;;;15.17;;
21677;SDS011;11000;50.360;7.582;2024-03-08T01:31:52;20.70;;;14.17;;
21677;SDS011;11000;50.360;7.582;2024-03-08T01:34:13;21.07;;;14.87;;
21677;SDS011;11000;50.360;7.582;2024-03-08T01:36:33;24.13;;;15.57;;
21677;SDS011;11000;50.360;7.582;2024-03-08T01:38:54;29.40;;;15.57;;
21677;SDS011;11000;50.360;7.582;2024-03-08T01:41:15;26.73;;;15.33;;
21677;SDS011;11000;50.360;7.582;2024-03-08T01:43:37;22.33;;;13.40;;
21677;SDS011;11000;50.360;7.582;2024-03-08T01:45:58;23.10;;;15.00;;
21677;SDS011;11000;50.360;7.582;2024-03-08T01:48:19;24.27;;;14.67;;
21677;SDS011;11000;50.360;7.582;2024-03-08T01:50:44;21.77;;;14.27;;
21677;SDS011;11000;50.360;7.582;2024-03-08T01:53:06;24.57;;;15.40;;
21677;SDS011;11000;50.360;7.582;2024-03-08T01:55:30;24.27;;;14.63;;
21677;SDS011;11000;50.360;7.582;2024-03-08T01:57:50;23.50;;;15.57;;
21677;SDS011;11000;50.360;7.582;2024-03-08T02:00:11;21.73;;;14.43;;
21677;SDS011;11000;50.360;7.582;2024-03-08T02:02:33;22.23;;;14.47;;
21677;SDS011;11000;50.360;7.582;2024-03-08T02:04:54;25.40;;;14.80;;
21677;SDS011;11000;50.360;7.582;2024-03-08T02:07:15;23.40;;;14.80;;
21677;SDS011;11000;50.360;7.582;2024-03-08T02:09:36;22.57;;;15.27;;
21677;SDS011;11000;50.360;7.582;2024-03-08T02:11:56;23.13;;;14.80;;
21677;SDS011;11000;50.360;7.582;2024-03-08T02:14:17;24.97;;;15.63;;
21677;SDS011;11000;50.360;7.582;2024-03-08T02:16:38;22.60;;;14.73;;
21677;SDS011;11000;50.360;7.582;2024-03-08T02:18:59;21.37;;;15.07;;
21677;SDS011;11000;50.360;7.582;2024-03-08T02:21:20;23.27;;;15.40;;
21677;SDS011;11000;50.360;7.582;2024-03-08T02:23:41;23.37;;;14.87;;
21677;SDS011;11000;50.360;7.582;2024-03-08T02:26:01;24.73;;;15.67;;
21677;SDS011;11000;50.360;7.582;2024-03-08T02:28:22;24.17;;;15.57;;
21677;SDS011;11000;50.360;7.582;2024-03-08T02:30:43;25.17;;;15.30;;
21677;SDS011;11000;50.360;7.582;2024-03-08T02:33:04;23.57;;;14.60;;
21677;SDS011;11000;50.360;7.582;2024-03-08T02:35:25;26.17;;;15.43;;
21677;SDS011;11000;50.360;7.582;2024-03-08T02:37:46;25.27;;;15.77;;
21677;SDS011;11000;50.360;7.582;2024-03-08T02:40:07;23.63;;;15.13;;
21677;SDS011;11000;50.360;7.582;2024-03-08T02:42:28;25.73;;;15.80;;
21677;SDS011;11000;50.360;7.582;2024-03-08T02:44:49;23.17;;;15.13;;
21677;SDS011;11000;50.360;7.582;2024-03-08T02:47:09;25.23;;;16.27;;
21677;SDS011;11000;50.360;7.582;2024-03-08T02:49:30;24.07;;;15.83;;
21677;SDS011;11000;50.360;7.582;2024-03-08T02:51:51;24.13;;;16.20;;
21677;SDS011;11000;50.360;7.582;2024-03-08T02:54:13;25.07;;;15.90;;
21677;SDS011;11000;50.360;7.582;2024-03-08T02:56:34;22.00;;;15.13;;
21677;SDS011;11000;50.360;7.582;2024-03-08T02:58:55;23.00;;;15.43;;
21677;SDS011;11000;50.360;7.582;2024-03-08T03:01:15;24.33;;;15.63;;
21677;SDS011;11000;50.360;7.582;2024-03-08T03:03:36;25.23;;;16.03;;
21677;SDS011;11000;50.360;7.582;2024-03-08T03:05:56;21.77;;;15.10;;
21677;SDS011;11000;50.360;7.582;2024-03-08T03:08:17;27.30;;;16.57;;
21677;SDS011;11000;50.360;7.582;2024-03-08T03:10:37;25.57;;;15.73;;
21677;SDS011;11000;50.360;7.582;2024-03-08T03:12:58;22.40;;;15.47;;
21677;SDS011;11000;50.360;7.582;2024-03-08T03:15:19;27.80;;;16.13;;
21677;SDS011;11000;50.360;7.582;2024-03-08T03:17:39;25.73;;;15.20;;
21677;SDS011;11000;50.360;7.582;2024-03-08T03:20:01;23.50;;;15.97;;
21677;SDS011;11000;50.360;7.582;2024-03-08T03:22:29;25.03;;;16.07;;
21677;SDS011;11000;50.360;7.582;2024-03-08T03:24:50;24.23;;;14.97;;
21677;SDS011;11000;50.360;7.582;2024-03-08T03:27:12;24.97;;;16.60;;
21677;SDS011;11000;50.360;7.582;2024-03-08T03:29:33;26.07;;;15.53;;
21677;SDS011;11000;50.360;7.582;2024-03-08T03:31:54;22.97;;;15.33;;
21677;SDS011;11000;50.360;7.582;2024-03-08T03:34:15;23.53;;;15.80;;
21677;SDS011;11000;50.360;7.582;2024-03-08T03:36:35;25.23;;;15.80;;
21677;SDS011;11000;50.360;7.582;2024-03-08T03:38:58;24.30;;;16.20;;
21677;SDS011;11000;50.360;7.582;2024-03-08T03:41:26;24.60;;;15.53;;
21677;SDS011;11000;50.360;7.582;2024-03-08T03:43:46;24.77;;;15.43;;
21677;SDS011;11000;50.360;7.582;2024-03-08T03:46:09;25.93;;;16.93;;
21677;SDS011;11000;50.360;7.582;2024-03-08T03:48:30;23.77;;;15.23;;
21677;SDS011;11000;50.360;7.582;2024-03-08T03:50:52;25.73;;;16.27;;
21677;SDS011;11000;50.360;7.582;2024-03-08T03:53:12;25.60;;;14.90;;
21677;SDS011;11000;50.360;7.582;2024-03-08T03:55:33;27.53;;;17.40;;
21677;SDS011;11000;50.360;7.582;2024-03-08T03:57:54;24.13;;;15.83;;
21677;SDS011;11000;50.360;7.582;2024-03-08T04:00:15;25.43;;;16.20;;
21677;SDS011;11000;50.360;7.582;2024-03-08T04:02:37;24.07;;;15.27;;
21677;SDS011;11000;50.360;7.582;2024-03-08T04:04:58;26.47;;;15.93;;
21677;SDS011;11000;50.360;7.582;2024-03-08T04:07:18;27.63;;;16.57;;
21677;SDS011;11000;50.360;7.582;2024-03-08T04:09:39;26.80;;;16.60;;
21677;SDS011;11000;50.360;7.582;2024-03-08T04:11:59;23.50;;;15.07;;
21677;SDS011;11000;50.360;7.582;2024-03-08T04:14:21;26.37;;;16.10;;
21677;SDS011;11000;50.360;7.582;2024-03-08T04:16:42;24.67;;;15.77;;
21677;SDS011;11000;50.360;7.582;2024-03-08T04:19:03;26.03;;;16.60;;
21677;SDS011;11000;50.360;7.582;2024-03-08T04:21:24;28.93;;;16.80;;
21677;SDS011;11000;50.360;7.582;2024-03-08T04:23:44;26.63;;;16.17;;
21677;SDS011;11000;50.360;7.582;2024-03-08T04:26:05;25.97;;;16.13;;
21677;SDS011;11000;50.360;7.582;2024-03-08T04:28:27;26.30;;;16.30;;
21677;SDS011;11000;50.360;7.582;2024-03-08T04:30:47;27.37;;;16.57;;
21677;SDS011;11000;50.360;7.582;2024-03-08T04:33:08;28.57;;;16.50;;
21677;SDS011;11000;50.360;7.582;2024-03-08T04:35:28;25.83;;;15.67;;
21677;SDS011;11000;50.360;7.582;2024-03-08T04:37:50;23.53;;;16.57;;
21677;SDS011;11000;50.360;7.582;2024-03-08T04:40:10;25.43;;;16.50;;
21677;SDS011;11000;50.360;7.582;2024-03-08T04:42:31;28.97;;;17.53;;
21677;SDS011;11000;50.360;7.582;2024-03-08T04:44:55;29.60;;;17.03;;
21677;SDS011;11000;50.360;7.582;2024-03-08T04:47:16;26.53;;;16.43;;
21677;SDS011;11000;50.360;7.582;2024-03-08T04:49:38;29.77;;;16.70;;
21677;SDS011;11000;50.360;7.582;2024-03-08T04:51:58;27.83;;;16.73;;
21677;SDS011;11000;50.360;7.582;2024-03-08T04:54:18;29.67;;;16.57;;
21677;SDS011;11000;50.360;7.582;2024-03-08T04:56:39;25.80;;;16.67;;
21677;SDS011;11000;50.360;7.582;2024-03-08T04:58:59;30.13;;;16.93;;
21677;SDS011;11000;50.360;7.582;2024-03-08T05:01:20;30.27;;;17.33;;
21677;SDS011;11000;50.360;7.582;2024-03-08T05:03:41;25.77;;;16.33;;
21677;SDS011;11000;50.360;7.582;2024-03-08T05:06:02;29.50;;;17.43;;
21677;SDS011;11000;50.360;7.582;2024-03-08T05:08:22;29.40;;;17.43;;
21677;SDS011;11000;50.360;7.582;2024-03-08T05:10:43;29.40;;;17.90;;
21677;SDS011;11000;50.360;7.582;2024-03-08T05:13:04;30.87;;;17.17;;
21677;SDS011;11000;50.360;7.582;2024-03-08T05:15:24;30.27;;;17.47;;
21677;SDS011;11000;50.360;7.582;2024-03-08T05:17:45;31.03;;;17.73;;
21677;SDS011;11000;50.360;7.582;2024-03-08T05:20:05;29.37;;;16.97;;
21677;SDS011;11000;50.360;7.582;2024-03-08T05:22:32;31.53;;;18.17;;
21677;SDS011;11000;50.360;7.582;2024-03-08T05:24:52;28.30;;;17.77;;
21677;SDS011;11000;50.360;7.582;2024-03-08T05:27:13;30.53;;;17.10;;
21677;SDS011;11000;50.360;7.582;2024-03-08T05:29:33;29.00;;;16.77;;
21677;SDS011;11000;50.360;7.582;2024-03-08T05:31:54;28.37;;;17.03;;
21677;SDS011;11000;50.360;7.582;2024-03-08T05:34:16;29.83;;;17.43;;
21677;SDS011;11000;50.360;7.582;2024-03-08T05:36:37;29.50;;;17.73;;
21677;SDS011;11000;50.360;7.582;2024-03-08T05:38:57;30.63;;;16.83;;
21677;SDS011;11000;50.360;7.582;2024-03-08T05:41:18;32.50;;;17.97;;
21677;SDS011;11000;50.360;7.582;2024-03-08T05:43:40;30.27;;;17.50;;
21677;SDS011;11000;50.360;7.582;2024-03-08T05:46:01;29.03;;;18.23;;
21677;SDS011;11000;50.360;7.582;2024-03-08T05:48:24;31.83;;;17.43;;
21677;SDS011;11000;50.360;7.582;2024-03-08T05:50:45;31.10;;;16.90;;
21677;SDS011;11000;50.360;7.582;2024-03-08T05:53:05;28.30;;;17.43;;
21677;SDS011;11000;50.360;7.582;2024-03-08T05:55:26;30.67;;;18.33;;
21677;SDS011;11000;50.360;7.582;2024-03-08T05:57:47;28.13;;;17.33;;
21677;SDS011;11000;50.360;7.582;2024-03-08T06:00:08;29.73;;;18.03;;
21677;SDS011;11000;50.360;7.582;2024-03-08T06:02:32;32.20;;;18.43;;
21677;SDS011;11000;50.360;7.582;2024-03-08T06:04:53;30.37;;;18.00;;
21677;SDS011;11000;50.360;7.582;2024-03-08T06:07:13;27.63;;;17.90;;
21677;SDS011;11000;50.360;7.582;2024-03-08T06:09:34;28.57;;;17.70;;
21677;SDS011;11000;50.360;7.582;2024-03-08T06:11:54;30.43;;;18.87;;
21677;SDS011;11000;50.360;7.582;2024-03-08T06:14:17;32.80;;;19.07;;
21677;SDS011;11000;50.360;7.582;2024-03-08T06:16:38;32.97;;;19.27;;
21677;SDS011;11000;50.360;7.582;2024-03-08T06:18:59;30.37;;;18.50;;
21677;SDS011;11000;50.360;7.582;2024-03-08T06:21:22;31.37;;;19.03;;
21677;SDS011;11000;50.360;7.582;2024-03-08T06:23:43;33.30;;;18.57;;
21677;SDS011;11000;50.360;7.582;2024-03-08T06:26:04;28.87;;;17.87;;
21677;SDS011;11000;50.360;7.582;2024-03-08T06:28:24;32.73;;;19.03;;
21677;SDS011;11000;50.360;7.582;2024-03-08T06:30:45;33.00;;;18.50;;
21677;SDS011;11000;50.360;7.582;2024-03-08T06:33:06;33.10;;;19.10;;
21677;SDS011;11000;50.360;7.582;2024-03-08T06:35:30;33.93;;;18.97;;
21677;SDS011;11000;50.360;7.582;2024-03-08T06:37:52;30.77;;;19.23;;
21677;SDS011;11000;50.360;7.582;2024-03-08T06:40:12;30.50;;;19.40;;
21677;SDS011;11000;50.360;7.582;2024-03-08T06:42:33;31.50;;;18.93;;
21677;SDS011;11000;50.360;7.582;2024-03-08T06:44:55;29.77;;;18.17;;
21677;SDS011;11000;50.360;7.582;2024-03-08T06:47:19;28.97;;;17.73;;
21677;SDS011;11000;50.360;7.582;2024-03-08T06:49:40;34.13;;;19.87;;
21677;SDS011;11000;50.360;7.582;2024-03-08T06:52:01;32.23;;;18.67;;
21677;SDS011;11000;50.360;7.582;2024-03-08T06:54:22;34.53;;;18.80;;
21677;SDS011;11000;50.360;7.582;2024-03-08T06:56:43;29.90;;;18.47;;
21677;SDS011;11000;50.360;7.582;2024-03-08T06:59:03;31.73;;;18.27;;
21677;SDS011;11000;50.360;7.582;2024-03-08T07:01:24;33.57;;;18.57;;
21677;SDS011;11000;50.360;7.582;2024-03-08T07:03:45;31.67;;;19.47;;
21677;SDS011;11000;50.360;7.582;2024-03-08T07:06:05;30.37;;;19.77;;
21677;SDS011;11000;50.360;7.582;2024-03-08T07:08:27;29.83;;;19.37;;
21677;SDS011;11000;50.360;7.582;2024-03-08T07:10:47;36.17;;;20.07;;
21677;SDS011;11000;50.360;7.582;2024-03-08T07:13:09;31.43;;;19.27;;
21677;SDS011;11000;50.360;7.582;2024-03-08T07:15:29;34.37;;;20.60;;
21677;SDS011;11000;50.360;7.582;2024-03-08T07:17:50;35.30;;;19.80;;
21677;SDS011;11000;50.360;7.582;2024-03-08T07:20:13;30.67;;;19.33;;
21677;SDS011;11000;50.360;7.582;2024-03-08T07:22:35;33.00;;;18.87;;
21677;SDS011;11000;50.360;7.582;2024-03-08T07:24:57;30.57;;;17.57;;
21677;SDS011;11000;50.360;7.582;2024-03-08T07:27:36;31.80;;;18.93;;
21677;SDS011;11000;50.360;7.582;2024-03-08T08:24:36;26.03;;;16.50;;
21677;SDS011;11000;50.360;7.582;2024-03-08T08:27:03;21.03;;;15.40;;
21677;SDS011;11000;50.360;7.582;2024-03-08T08:29:28;23.83;;;16.43;;
21677;SDS011;11000;50.360;7.582;2024-03-08T08:31:50;24.03;;;15.40;;
21677;SDS011;11000;50.360;7.582;2024-03-08T08:34:10;23.47;;;15.70;;
21677;SDS011;11000;50.360;7.582;2024-03-08T08:36:31;23.07;;;15.53;;
21677;SDS011;11000;50.360;7.582;2024-03-08T08:38:52;22.87;;;15.47;;
21677;SDS011;11000;50.360;7.582;2024-03-08T08:41:16;23.30;;;15.13;;
21677;SDS011;11000;50.360;7.582;2024-03-08T08:43:37;23.37;;;15.23;;
21677;SDS011;11000;50.360;7.582;2024-03-08T08:45:58;23.63;;;15.90;;
21677;SDS011;11000;50.360;7.582;2024-03-08T08:48:19;20.97;;;14.83;;
21677;SDS011;11000;50.360;7.582;2024-03-08T08:50:39;23.23;;;15.03;;
21677;SDS011;11000;50.360;7.582;2024-03-08T08:53:01;22.50;;;15.37;;
21677;SDS011;11000;50.360;7.582;2024-03-08T08:55:23;26.53;;;16.17;;
21677;SDS011;11000;50.360;7.582;2024-03-08T08:57:47;25.43;;;15.23;;
21677;SDS011;11000;50.360;7.582;2024-03-08T09:00:07;22.63;;;15.43;;
21677;SDS011;11000;50.360;7.582;2024-03-08T09:02:28;22.73;;;15.93;;
21677;SDS011;11000;50.360;7.582;2024-03-08T09:04:49;23.27;;;15.13;;
21677;SDS011;11000;50.360;7.582;2024-03-08T09:07:10;23.50;;;15.90;;
21677;SDS011;11000;50.360;7.582;2024-03-08T09:09:31;24.83;;;16.37;;
21677;SDS011;11000;50.360;7.582;2024-03-08T09:11:51;23.60;;;15.27;;
21677;SDS011;11000;50.360;7.582;2024-03-08T09:14:14;21.60;;;15.67;;
21677;SDS011;11000;50.360;7.582;2024-03-08T09:16:34;23.17;;;15.00;;
21677;SDS011;11000;50.360;7.582;2024-03-08T09:18:56;23.77;;;15.07;;
21677;SDS011;11000;50.360;7.582;2024-03-08T09:21:17;22.17;;;15.67;;
21677;SDS011;11000;50.360;7.582;2024-03-08T09:23:38;24.57;;;14.57;;
21677;SDS011;11000;50.360;7.582;2024-03-08T09:26:01;21.13;;;15.00;;
21677;SDS011;11000;50.360;7.582;2024-03-08T09:28:36;23.80;;;14.97;;
21677;SDS011;11000;50.360;7.582;2024-03-08T09:30:58;23.57;;;15.00;;
21677;SDS011;11000;50.360;7.582;2024-03-08T09:33:19;19.80;;;14.27;;
21677;SDS011;11000;50.360;7.582;2024-03-08T09:35:39;22.80;;;14.87;;
21677;SDS011;11000;50.360;7.582;2024-03-08T09:38:00;22.10;;;13.70;;
21677;SDS011;11000;50.360;7.582;2024-03-08T09:40:20;20.47;;;13.00;;
21677;SDS011;11000;50.360;7.582;2024-03-08T09:42:43;21.27;;;13.33;;
21677;SDS011;11000;50.360;7.582;2024-03-08T09:45:08;19.73;;;13.13;;
21677;SDS011;11000;50.360;7.582;2024-03-08T09:47:35;20.47;;;12.93;;
21677;SDS011;11000;50.360;7.582;2024-03-08T09:49:59;18.10;;;12.70;;
21677;SDS011;11000;50.360;7.582;2024-03-08T09:52:21;19.63;;;12.43;;
21677;SDS011;11000;50.360;7.582;2024-03-08T09:54:41;17.77;;;12.53;;
21677;SDS011;11000;50.360;7.582;2024-03-08T09:57:04;18.83;;;11.60;;
21677;SDS011;11000;50.360;7.582;2024-03-08T09:59:31;16.27;;;11.57;;
21677;SDS011;11000;50.360;7.582;2024-03-08T10:01:57;18.03;;;10.97;;
21677;SDS011;11000;50.360;7.582;2024-03-08T10:04:19;18.60;;;11.73;;
21677;SDS011;11000;50.360;7.582;2024-03-08T10:06:40;16.90;;;11.33;;
21677;SDS011;11000;50.360;7.582;2024-03-08T10:09:04;14.87;;;10.47;;
21677;SDS011;11000;50.360;7.582;2024-03-08T10:11:27;17.03;;;10.93;;
21677;SDS011;11000;50.360;7.582;2024-03-08T10:13:49;15.77;;;11.40;;
21677;SDS011;11000;50.360;7.582;2024-03-08T10:16:10;16.20;;;11.87;;
21677;SDS011;11000;50.360;7.582;2024-03-08T10:18:33;15.70;;;10.93;;
21677;SDS011;11000;50.360;7.582;2024-03-08T10:21:06;14.27;;;10.27;;
21677;SDS011;11000;50.360;7.582;2024-03-08T10:23:30;12.90;;;9.53;;
21677;SDS011;11000;50.360;7.582;2024-03-08T10:25:51;14.67;;;10.77;;
21677;SDS011;11000;50.360;7.582;2024-03-08T10:28:12;12.83;;;10.63;;
21677;SDS011;11000;50.360;7.582;2024-03-08T10:30:33;15.00;;;10.27;;
21677;SDS011;11000;50.360;7.582;2024-03-08T10:32:53;16.23;;;10.47;;
21677;SDS011;11000;50.360;7.582;2024-03-08T10:35:17;14.20;;;9.57;;
21677;SDS011;11000;50.360;7.582;2024-03-08T10:37:45;16.07;;;10.30;;
21677;SDS011;11000;50.360;7.582;2024-03-08T10:40:08;14.27;;;9.77;;
21677;SDS011;11000;50.360;7.582;2024-03-08T10:42:40;15.83;;;10.50;;
21677;SDS011;11000;50.360;7.582;2024-03-08T10:45:55;15.50;;;10.07;;
21677;SDS011;11000;50.360;7.582;2024-03-08T10:50:52;13.33;;;9.80;;
21677;SDS011;11000;50.360;7.582;2024-03-08T10:53:13;13.80;;;9.73;;
21677;SDS011;11000;50.360;7.582;2024-03-08T10:55:34;14.73;;;10.17;;
21677;SDS011;11000;50.360;7.582;2024-03-08T10:57:59;12.43;;;9.57;;
21677;SDS011;11000;50.360;7.582;2024-03-08T11:00:20;13.73;;;9.83;;
21677;SDS011;11000;50.360;7.582;2024-03-08T11:02:47;12.90;;;9.37;;
21677;SDS011;11000;50.360;7.582;2024-03-08T11:05:13;15.50;;;9.87;;
21677;SDS011;11000;50.360;7.582;2024-03-08T11:07:58;14.40;;;9.63;;
21677;SDS011;11000;50.360;7.582;2024-03-08T11:10:19;12.73;;;9.20;;
21677;SDS011;11000;50.360;7.582;2024-03-08T11:12:40;13.13;;;9.80;;
21677;SDS011;11000;50.360;7.582;2024-03-08T11:15:01;13.63;;;10.00;;
21677;SDS011;11000;50.360;7.582;2024-03-08T11:19:51;12.07;;;8.70;;
21677;SDS011;11000;50.360;7.582;2024-03-08T11:22:20;14.40;;;10.30;;
21677;SDS011;11000;50.360;7.582;2024-03-08T11:24:46;13.27;;;9.60;;
21677;SDS011;11000;50.360;7.582;2024-03-08T11:27:07;9.87;;;8.03;;
21677;SDS011;11000;50.360;7.582;2024-03-08T11:32:09;13.43;;;9.77;;
21677;SDS011;11000;50.360;7.582;2024-03-08T11:34:37;12.43;;;9.27;;
21677;SDS011;11000;50.360;7.582;2024-03-08T11:37:06;12.67;;;8.87;;
21677;SDS011;11000;50.360;7.582;2024-03-08T11:39:35;14.00;;;9.77;;
21677;SDS011;11000;50.360;7.582;2024-03-08T11:41:57;15.07;;;10.03;;
21677;SDS011;11000;50.360;7.582;2024-03-08T11:44:18;14.90;;;10.00;;
21677;SDS011;11000;50.360;7.582;2024-03-08T11:46:40;14.03;;;10.37;;
21677;SDS011;11000;50.360;7.582;2024-03-08T11:49:06;13.50;;;9.60;;
21677;SDS011;11000;50.360;7.582;2024-03-08T11:51:27;13.07;;;9.50;;
21677;SDS011;11000;50.360;7.582;2024-03-08T11:53:48;16.43;;;10.57;;
21677;SDS011;11000;50.360;7.582;2024-03-08T11:56:10;13.10;;;10.13;;
21677;SDS011;11000;50.360;7.582;2024-03-08T11:58:32;12.77;;;9.33;;
21677;SDS011;11000;50.360;7.582;2024-03-08T12:00:59;11.93;;;9.67;;
21677;SDS011;11000;50.360;7.582;2024-03-08T12:03:24;12.30;;;8.93;;
21677;SDS011;11000;50.360;7.582;2024-03-08T12:05:45;12.77;;;9.60;;
21677;SDS011;11000;50.360;7.582;2024-03-08T12:08:07;13.07;;;9.53;;
21677;SDS011;11000;50.360;7.582;2024-03-08T12:10:29;12.07;;;9.17;;
21677;SDS011;11000;50.360;7.582;2024-03-08T12:12:53;14.60;;;10.30;;
21677;SDS011;11000;50.360;7.582;2024-03-08T12:15:16;13.53;;;10.10;;
21677;SDS011;11000;50.360;7.582;2024-03-08T12:17:38;13.63;;;10.33;;
21677;SDS011;11000;50.360;7.582;2024-03-08T12:20:12;15.37;;;10.80;;
21677;SDS011;11000;50.360;7.582;2024-03-08T12:22:44;11.40;;;9.33;;
21677;SDS011;11000;50.360;7.582;2024-03-08T12:25:05;12.70;;;9.03;;
21677;SDS011;11000;50.360;7.582;2024-03-08T12:27:30;13.97;;;10.30;;
21677;SDS011;11000;50.360;7.582;2024-03-08T12:29:50;13.37;;;9.73;;
21677;SDS011;11000;50.360;7.582;2024-03-08T12:32:11;12.93;;;9.57;;
21677;SDS011;11000;50.360;7.582;2024-03-08T12:34:31;13.13;;;10.43;;
21677;SDS011;11000;50.360;7.582;2024-03-08T12:36:52;15.90;;;10.20;;
21677;SDS011;11000;50.360;7.582;2024-03-08T12:39:15;13.17;;;9.50;;
21677;SDS011;11000;50.360;7.582;2024-03-08T12:41:40;12.30;;;9.70;;
21677;SDS011;11000;50.360;7.582;2024-03-08T12:44:01;13.50;;;9.77;;
21677;SDS011;11000;50.360;7.582;2024-03-08T12:46:22;11.70;;;9.70;;
21677;SDS011;11000;50.360;7.582;2024-03-08T12:48:46;14.07;;;9.80;;
21677;SDS011;11000;50.360;7.582;2024-03-08T12:51:07;13.03;;;10.03;;
21677;SDS011;11000;50.360;7.582;2024-03-08T12:53:28;11.70;;;9.43;;
21677;SDS011;11000;50.360;7.582;2024-03-08T12:55:49;13.27;;;10.07;;
21677;SDS011;11000;50.360;7.582;2024-03-08T12:58:09;15.27;;;10.43;;
21677;SDS011;11000;50.360;7.582;2024-03-08T13:00:31;14.33;;;10.30;;
21677;SDS011;11000;50.360;7.582;2024-03-08T13:02:51;16.30;;;10.23;;
21677;SDS011;11000;50.360;7.582;2024-03-08T13:05:12;13.80;;;9.70;;
21677;SDS011;11000;50.360;7.582;2024-03-08T13:07:34;11.87;;;9.23;;
21677;SDS011;11000;50.360;7.582;2024-03-08T13:09:55;12.70;;;10.20;;
21677;SDS011;11000;50.360;7.582;2024-03-08T13:12:16;13.70;;;9.90;;
21677;SDS011;11000;50.360;7.582;2024-03-08T13:14:37;13.63;;;9.73;;
21677;SDS011;11000;50.360;7.582;2024-03-08T13:17:00;13.43;;;9.47;;
21677;SDS011;11000;50.360;7.582;2024-03-08T13:19:22;12.43;;;9.90;;
21677;SDS011;11000;50.360;7.582;2024-03-08T13:21:42;15.10;;;10.27;;
21677;SDS011;11000;50.360;7.582;2024-03-08T13:24:03;15.03;;;9.83;;
21677;SDS011;11000;50.360;7.582;2024-03-08T13:26:24;14.93;;;10.33;;
21677;SDS011;11000;50.360;7.582;2024-03-08T13:28:45;14.87;;;10.50;;
21677;SDS011;11000;50.360;7.582;2024-03-08T13:31:08;11.60;;;9.37;;
21677;SDS011;11000;50.360;7.582;2024-03-08T13:33:38;11.63;;;9.07;;
21677;SDS011;11000;50.360;7.582;2024-03-08T13:35:59;11.93;;;9.63;;
21677;SDS011;11000;50.360;7.582;2024-03-08T13:38:21;15.13;;;9.87;;
21677;SDS011;11000;50.360;7.582;2024-03-08T13:40:42;13.60;;;8.97;;
21677;SDS011;11000;50.360;7.582;2024-03-08T13:43:03;13.37;;;9.80;;
21677;SDS011;11000;50.360;7.582;2024-03-08T13:45:24;11.27;;;9.23;;
21677;SDS011;11000;50.360;7.582;2024-03-08T13:47:44;13.17;;;9.30;;
21677;SDS011;11000;50.360;7.582;2024-03-08T13:50:06;13.47;;;10.07;;
21677;SDS011;11000;50.360;7.582;2024-03-08T13:52:31;16.47;;;10.30;;
21677;SDS011;11000;50.360;7.582;2024-03-08T13:54:52;16.27;;;10.37;;
21677;SDS011;11000;50.360;7.582;2024-03-08T13:57:12;16.03;;;10.10;;
21677;SDS011;11000;50.360;7.582;2024-03-08T13:59:33;12.00;;;9.17;;
21677;SDS011;11000;50.360;7.582;2024-03-08T14:01:55;13.17;;;10.13;;
21677;SDS011;11000;50.360;7.582;2024-03-08T14:04:17;12.33;;;9.70;;
21677;SDS011;11000;50.360;7.582;2024-03-08T14:06:37;15.00;;;9.37;;
21677;SDS011;11000;50.360;7.582;2024-03-08T14:08:58;16.50;;;9.93;;
21677;SDS011;11000;50.360;7.582;2024-03-08T14:11:18;13.30;;;10.13;;
21677;SDS011;11000;50.360;7.582;2024-03-08T14:13:42;12.80;;;9.60;;
21677;SDS011;11000;50.360;7.582;2024-03-08T14:16:06;11.90;;;9.50;;
21677;SDS011;11000;50.360;7.582;2024-03-08T14:18:29;13.10;;;9.33;;
21677;SDS011;11000;50.360;7.582;2024-03-08T14:20:49;11.93;;;9.63;;
21677;SDS011;11000;50.360;7.582;2024-03-08T14:23:11;14.00;;;10.03;;
21677;SDS011;11000;50.360;7.582;2024-03-08T14:25:32;14.17;;;10.33;;
21677;SDS011;11000;50.360;7.582;2024-03-08T14:27:53;15.03;;;9.77;;
21677;SDS011;11000;50.360;7.582;2024-03-08T14:30:14;17.37;;;9.77;;
21677;SDS011;11000;50.360;7.582;2024-03-08T14:32:51;14.17;;;10.27;;
21677;SDS011;11000;50.360;7.582;2024-03-08T14:35:13;14.47;;;10.37;;
21677;SDS011;11000;50.360;7.582;2024-03-08T14:37:34;14.57;;;9.97;;
21677;SDS011;11000;50.360;7.582;2024-03-08T14:39:55;12.67;;;10.13;;
21677;SDS011;11000;50.360;7.582;2024-03-08T14:42:16;13.43;;;10.47;;
21677;SDS011;11000;50.360;7.582;2024-03-08T14:44:38;13.37;;;9.53;;
21677;SDS011;11000;50.360;7.582;2024-03-08T14:46:58;13.87;;;10.83;;
21677;SDS011;11000;50.360;7.582;2024-03-08T14:49:19;13.03;;;9.53;;
21677;SDS011;11000;50.360;7.582;2024-03-08T14:51:41;15.93;;;11.00;;
21677;SDS011;11000;50.360;7.582;2024-03-08T14:54:02;14.00;;;10.00;;